East Prairie, Missouri
Current Conditions -  °F | °C
As of 2:35 PM on Friday 28 Nov 2014 (Local Time) from KCIR Reporting Station
Clear Clear  
Wind Chill: 51°   Ceiling: Unl
Heat Index: 51°   Visibility: 10mi
Dew Point: 30°   Wind: 16mph
Humidity: 45%   Direction: 180°S
Pressure: 30.14"   Gusts: 21mph
Location:  36.78°N, 89.39°W
Report Text: KCIR 282035Z AUTO 18014G18KT 10SM CLR 11/M01 A3014 RMK AO2 T01051010
Loading
Personal Weather Stations






























Interactive Weather Map New forecast layout! Learn more

10-Day Weather Forecast

Advertisements
Track Severe Weather on mobile